Time;durP1;ratioP1;P1;durP2;ratioP2;P2;SDS_P1;SDS_P2;PMS_P1;PMS_P2;Temp;Humidity;BMP_temperature;BMP_pressure;BME280_temperature;BME280_humidity;BME280_pressure;Samples;Min_cycle;Max_cycle;Signal;HPM_P1;HPM_P2
2022/01/08 00:01:56;;;;;;;7.85;2.90;;;2.20;99.90;;;;;;5072187;28;20496;-72
2022/01/08 00:04:21;;;;;;;5.82;2.40;;;2.20;99.90;;;;;;5056418;28;20035;-71
2022/01/08 00:06:47;;;;;;;6.45;2.72;;;2.20;99.90;;;;;;5054174;28;20454;-70
2022/01/08 00:09:13;;;;;;;8.70;3.13;;;2.20;99.90;;;;;;5073014;28;20083;-71
2022/01/08 00:11:41;;;;;;;5.95;2.72;;;2.20;99.90;;;;;;5056520;28;20048;-73
2022/01/08 00:14:09;;;;;;;4.43;2.97;;;2.30;99.90;;;;;;5047839;28;20048;-69
2022/01/08 00:16:37;;;;;;;7.47;3.10;;;2.30;99.90;;;;;;5070982;28;20135;-72
2022/01/08 00:19:04;;;;;;;7.18;3.60;;;2.30;99.90;;;;;;5073212;28;20412;-71
2022/01/08 00:21:29;;;;;;;6.45;3.75;;;2.40;99.90;;;;;;5071848;28;20401;-68
2022/01/08 00:23:55;;;;;;;8.10;3.75;;;2.40;99.90;;;;;;5073274;28;20040;-71
2022/01/08 00:26:20;;;;;;;6.82;3.15;;;2.30;99.90;;;;;;5055920;28;20090;-72
2022/01/08 00:28:46;;;;;;;8.18;4.13;;;2.30;99.90;;;;;;5072350;28;20110;-69
2022/01/08 00:31:12;;;;;;;10.10;5.05;;;2.20;99.90;;;;;;5073166;28;20728;-69
2022/01/08 00:33:38;;;;;;;5.75;4.57;;;2.10;99.90;;;;;;5073383;28;20051;-68
2022/01/08 00:36:07;;;;;;;10.13;5.32;;;2.00;99.90;;;;;;5090528;28;20046;-71
2022/01/08 00:38:33;;;;;;;11.02;6.10;;;1.90;99.90;;;;;;5072813;28;20048;-73
2022/01/08 00:40:59;;;;;;;12.52;6.10;;;1.80;99.90;;;;;;5071923;28;20055;-72
2022/01/08 00:43:25;;;;;;;11.82;7.43;;;1.80;99.90;;;;;;5055503;28;20413;-72
2022/01/08 00:45:51;;;;;;;14.07;8.02;;;1.70;99.90;;;;;;5072529;28;20051;-72
2022/01/08 00:48:17;;;;;;;9.65;7.80;;;1.70;99.90;;;;;;5072646;28;20059;-69
2022/01/08 00:50:43;;;;;;;16.15;9.18;;;1.70;99.90;;;;;;5071833;28;20066;-72
2022/01/08 00:53:08;;;;;;;14.88;9.05;;;1.60;99.90;;;;;;5072888;28;20040;-72
2022/01/08 00:55:34;;;;;;;15.63;9.75;;;1.50;99.90;;;;;;5073000;28;20042;-72
2022/01/08 00:58:00;;;;;;;16.63;9.82;;;1.50;99.90;;;;;;5084567;28;20089;-73
2022/01/08 01:00:25;;;;;;;16.77;10.05;;;1.50;99.90;;;;;;5071611;28;20040;-72
2022/01/08 01:02:53;;;;;;;11.60;10.43;;;1.50;99.90;;;;;;5073027;28;20043;-71
2022/01/08 01:05:19;;;;;;;15.30;10.18;;;1.40;99.90;;;;;;5072710;28;20523;-72
2022/01/08 01:07:46;;;;;;;17.40;11.15;;;1.40;99.90;;;;;;5045739;28;20115;-70
2022/01/08 01:10:12;;;;;;;17.83;11.52;;;1.40;99.90;;;;;;5060804;28;20124;-72
2022/01/08 01:12:38;;;;;;;14.80;10.75;;;1.40;99.90;;;;;;5072206;28;20203;-72
2022/01/08 01:15:06;;;;;;;17.10;11.23;;;1.40;99.90;;;;;;5072968;28;20127;-71
2022/01/08 01:17:32;;;;;;;20.17;10.90;;;1.40;99.90;;;;;;5072723;28;20042;-72
2022/01/08 01:19:57;;;;;;;15.65;10.52;;;1.40;99.90;;;;;;5093981;28;20056;-70
2022/01/08 01:22:28;;;;;;;16.20;10.27;;;1.40;99.90;;;;;;5083805;28;20040;-73
2022/01/08 01:25:01;;;;;;;17.02;11.35;;;1.30;99.90;;;;;;5075954;28;20048;-73
2022/01/08 01:30:16;;;;;;;13.82;10.73;;;1.30;99.90;;;;;;5074151;28;20048;-72
2022/01/08 01:49:09;;;;;;;11.63;7.53;;;1.40;99.90;;;;;;5076040;28;20048;-74
2022/01/08 01:51:35;;;;;;;16.23;6.68;;;1.50;99.90;;;;;;5076445;28;20053;-72
2022/01/08 01:54:01;;;;;;;16.13;6.95;;;1.50;99.90;;;;;;5043354;28;20040;-75
2022/01/08 01:56:27;;;;;;;15.45;6.60;;;1.60;99.90;;;;;;5075672;28;20044;-75
2022/01/08 01:58:53;;;;;;;15.35;6.68;;;1.60;99.90;;;;;;5075678;28;20109;-75
2022/01/08 02:01:19;;;;;;;11.73;5.93;;;1.70;99.90;;;;;;5075005;28;20040;-74
2022/01/08 02:03:44;;;;;;;13.20;5.90;;;1.70;99.90;;;;;;5059102;28;20043;-76
2022/01/08 02:06:10;;;;;;;11.18;6.07;;;1.70;99.90;;;;;;5075473;28;20047;-75
2022/01/08 02:08:41;;;;;;;8.43;5.40;;;1.70;99.90;;;;;;5074943;28;20040;-70
2022/01/08 02:11:07;;;;;;;9.32;5.10;;;1.80;99.90;;;;;;5075161;28;20051;-70
2022/01/08 02:13:33;;;;;;;9.05;5.22;;;1.80;99.90;;;;;;5075558;28;20040;-74
2022/01/08 02:16:01;;;;;;;8.82;5.32;;;1.80;99.90;;;;;;5074405;28;20126;-75
2022/01/08 02:18:27;;;;;;;12.05;5.18;;;1.80;99.90;;;;;;5075487;28;20043;-69
2022/01/08 02:20:58;;;;;;;11.13;5.88;;;1.80;99.90;;;;;;5074822;28;20458;-76
2022/01/08 02:23:28;;;;;;;13.75;5.18;;;1.90;99.90;;;;;;5081016;28;20127;-75
2022/01/08 02:26:07;;;;;;;8.85;5.20;;;1.90;99.90;;;;;;5075377;28;20433;-75
2022/01/08 02:28:35;;;;;;;11.05;5.15;;;1.90;99.90;;;;;;5074221;28;20047;-72
2022/01/08 02:31:00;;;;;;;8.80;3.88;;;1.90;99.90;;;;;;5074226;28;20490;-74
2022/01/08 02:33:27;;;;;;;13.60;4.80;;;1.90;99.90;;;;;;5051944;28;20045;-72
2022/01/08 02:35:53;;;;;;;10.95;5.57;;;2.00;99.90;;;;;;5069240;28;20071;-73
2022/01/08 02:38:19;;;;;;;10.05;4.70;;;2.00;99.90;;;;;;5054036;28;20094;-68
2022/01/08 02:40:57;;;;;;;8.68;4.47;;;2.00;99.90;;;;;;5072072;28;20126;-74
2022/01/08 02:43:24;;;;;;;7.38;4.43;;;2.00;99.90;;;;;;5050746;28;20045;-72
2022/01/08 02:45:50;;;;;;;10.35;4.40;;;2.00;99.90;;;;;;5069052;28;20083;-72
2022/01/08 02:48:16;;;;;;;9.60;3.80;;;2.00;99.90;;;;;;5074599;28;20102;-71
2022/01/08 02:50:41;;;;;;;10.10;4.13;;;2.00;99.90;;;;;;5073973;28;20040;-72
2022/01/08 02:53:07;;;;;;;7.28;3.97;;;2.00;99.90;;;;;;5057932;28;20086;-70
2022/01/08 02:55:32;;;;;;;4.93;3.40;;;2.00;99.90;;;;;;5074671;28;20044;-72
2022/01/08 02:57:58;;;;;;;8.98;3.85;;;2.00;99.90;;;;;;5074056;28;20036;-72
2022/01/08 03:00:24;;;;;;;6.47;3.88;;;2.00;99.90;;;;;;5074612;28;20044;-70
2022/01/08 03:02:51;;;;;;;6.38;3.80;;;2.10;99.90;;;;;;5074201;28;20094;-71
2022/01/08 03:05:18;;;;;;;10.73;4.35;;;2.00;99.90;;;;;;5073776;28;20065;-70
2022/01/08 03:07:46;;;;;;;9.38;4.30;;;2.00;99.90;;;;;;5074665;28;20047;-75
2022/01/08 03:10:16;;;;;;;9.88;4.30;;;2.00;99.90;;;;;;5080288;28;20071;-73
2022/01/08 03:12:42;;;;;;;8.70;4.22;;;2.00;99.90;;;;;;5043935;28;20040;-74
2022/01/08 03:15:20;;;;;;;11.95;4.53;;;2.00;99.90;;;;;;5063033;28;20415;-74
2022/01/08 03:17:46;;;;;;;10.23;5.10;;;1.90;99.90;;;;;;5073646;28;20047;-74
2022/01/08 03:20:14;;;;;;;9.48;4.88;;;1.90;99.90;;;;;;5074000;28;20044;-75
2022/01/08 03:22:43;;;;;;;9.50;5.95;;;1.80;99.90;;;;;;5073798;28;20040;-74
2022/01/08 03:25:09;;;;;;;12.73;5.65;;;1.80;99.90;;;;;;5057474;28;20048;-74
2022/01/08 03:27:35;;;;;;;9.65;6.30;;;1.70;99.90;;;;;;5074214;28;20085;-74
2022/01/08 03:30:04;;;;;;;13.00;6.10;;;1.70;99.90;;;;;;5073592;28;20036;-75
2022/01/08 03:32:29;;;;;;;12.85;7.18;;;1.70;99.90;;;;;;5073176;28;20518;-74
2022/01/08 03:34:55;;;;;;;16.77;8.48;;;1.60;99.90;;;;;;5074183;28;20048;-74
2022/01/08 03:37:20;;;;;;;13.05;7.60;;;1.50;99.90;;;;;;5073965;28;20043;-71
2022/01/08 03:39:46;;;;;;;14.25;7.60;;;1.50;99.90;;;;;;5055773;28;20408;-74
2022/01/08 03:42:11;;;;;;;12.23;7.70;;;1.40;99.90;;;;;;5073926;28;20119;-75
2022/01/08 03:44:37;;;;;;;12.02;7.40;;;1.40;99.90;;;;;;5057208;28;20178;-72
2022/01/08 03:49:47;;;;;;;13.52;7.13;;;1.40;99.90;;;;;;5073397;28;20052;-72
2022/01/08 03:52:13;;;;;;;13.38;8.00;;;1.30;99.90;;;;;;5073383;28;20408;-74
2022/01/08 03:54:40;;;;;;;19.33;9.20;;;1.30;99.90;;;;;;5073114;28;20038;-74
2022/01/08 03:57:06;;;;;;;15.50;8.65;;;1.20;99.90;;;;;;5073830;28;20086;-74
2022/01/08 03:59:31;;;;;;;12.50;8.20;;;1.20;99.90;;;;;;5072655;28;20080;-74
2022/01/08 04:01:57;;;;;;;15.60;8.82;;;1.20;99.90;;;;;;5073497;28;20044;-71
2022/01/08 04:04:23;;;;;;;21.40;8.00;;;1.10;99.90;;;;;;5072866;28;20467;-74
2022/01/08 04:06:48;;;;;;;17.67;7.82;;;1.10;99.90;;;;;;5056115;28;20048;-73
2022/01/08 04:09:14;;;;;;;16.08;7.63;;;1.10;99.90;;;;;;5073405;28;20036;-74
2022/01/08 04:11:40;;;;;;;16.40;8.30;;;1.00;99.90;;;;;;5046578;28;20048;-74
2022/01/08 04:14:06;;;;;;;16.15;7.38;;;1.00;99.90;;;;;;5072536;28;20036;-70
2022/01/08 04:16:34;;;;;;;16.38;8.30;;;1.00;99.90;;;;;;5073064;28;20139;-74
2022/01/08 04:19:00;;;;;;;12.85;8.60;;;1.00;99.90;;;;;;5056597;28;20039;-74
2022/01/08 04:23:53;;;;;;;14.13;6.30;;;1.00;99.90;;;;;;5072981;28;20058;-72
2022/01/08 04:26:21;;;;;;;12.02;6.10;;;1.00;99.90;;;;;;5072860;28;20043;-73
2022/01/08 04:28:48;;;;;;;11.13;5.90;;;1.00;99.90;;;;;;5090185;28;20048;-72
2022/01/08 04:31:15;;;;;;;9.63;5.45;;;1.00;99.90;;;;;;5072789;28;20514;-74
2022/01/08 04:33:40;;;;;;;12.38;4.85;;;1.00;99.90;;;;;;5090880;28;20076;-70
2022/01/08 04:36:07;;;;;;;7.32;4.50;;;1.00;99.90;;;;;;5072536;28;20459;-69
2022/01/08 04:38:33;;;;;;;10.60;4.30;;;1.00;99.90;;;;;;5055601;28;20113;-75
2022/01/08 04:40:59;;;;;;;12.00;4.85;;;1.00;99.90;;;;;;5041493;28;20123;-75
2022/01/08 04:43:25;;;;;;;10.23;4.63;;;1.00;99.90;;;;;;5072551;28;20430;-76
2022/01/08 04:45:52;;;;;;;10.35;4.47;;;1.00;99.90;;;;;;5090901;28;20048;-71
2022/01/08 04:48:18;;;;;;;9.15;3.83;;;1.00;99.90;;;;;;5072593;28;20052;-72
2022/01/08 04:50:44;;;;;;;9.43;4.05;;;1.00;99.90;;;;;;5071855;28;20469;-72
2022/01/08 04:53:10;;;;;;;6.38;3.25;;;1.00;99.90;;;;;;5055728;28;20135;-74
2022/01/08 04:55:36;;;;;;;10.50;3.88;;;1.00;99.90;;;;;;5073153;28;20123;-72
2022/01/08 04:58:03;;;;;;;8.13;3.80;;;1.00;99.90;;;;;;5071949;28;20556;-74
2022/01/08 05:00:28;;;;;;;13.75;3.45;;;0.90;99.90;;;;;;5072997;28;20055;-74
2022/01/08 05:02:54;;;;;;;13.38;3.08;;;0.90;99.90;;;;;;5072174;28;20495;-73
2022/01/08 05:05:19;;;;;;;9.30;3.70;;;0.90;99.90;;;;;;5071693;28;20514;-75
2022/01/08 05:07:45;;;;;;;11.77;3.38;;;0.90;99.90;;;;;;5055841;28;20040;-76
2022/01/08 05:10:11;;;;;;;8.55;2.83;;;0.90;99.90;;;;;;5072031;28;20040;-76
2022/01/08 05:12:38;;;;;;;14.52;3.08;;;0.90;99.90;;;;;;5040570;28;20052;-74
2022/01/08 05:15:04;;;;;;;13.00;3.88;;;0.80;99.90;;;;;;5069303;28;20095;-76
2022/01/08 05:17:41;;;;;;;10.27;3.60;;;0.90;99.90;;;;;;5071877;28;20044;-69
2022/01/08 05:20:10;;;;;;;8.18;3.30;;;0.80;99.90;;;;;;5055949;28;20046;-72
2022/01/08 05:25:08;;;;;;;8.38;2.95;;;0.70;99.90;;;;;;5071253;28;20056;-70
2022/01/08 05:27:34;;;;;;;9.68;3.80;;;0.70;99.90;;;;;;5072325;28;20044;-76
2022/01/08 05:29:59;;;;;;;6.70;3.35;;;0.70;99.90;;;;;;5072578;28;20047;-76
2022/01/08 05:32:25;;;;;;;10.60;4.03;;;0.70;99.90;;;;;;5055130;28;20044;-77
2022/01/08 05:34:51;;;;;;;10.20;3.38;;;0.70;99.90;;;;;;5072242;28;20036;-76
2022/01/08 05:37:18;;;;;;;8.88;4.10;;;0.70;99.90;;;;;;5055963;28;20054;-75
2022/01/08 05:39:45;;;;;;;10.30;3.47;;;0.70;99.90;;;;;;5038686;28;20075;-76
2022/01/08 05:42:11;;;;;;;9.73;3.92;;;0.70;99.90;;;;;;5047728;28;20128;-74
2022/01/08 05:44:37;;;;;;;11.18;3.60;;;0.70;99.90;;;;;;5072473;28;20056;-70
2022/01/08 05:47:04;;;;;;;8.98;3.38;;;0.80;99.90;;;;;;5071629;28;20067;-73
2022/01/08 05:49:29;;;;;;;14.98;4.25;;;0.70;99.90;;;;;;5072229;28;20510;-73
2022/01/08 05:51:55;;;;;;;14.70;3.92;;;0.70;99.90;;;;;;5072549;28;20051;-69
2022/01/08 05:54:21;;;;;;;11.05;3.60;;;0.60;99.90;;;;;;5071599;28;20047;-73
2022/01/08 05:56:49;;;;;;;7.55;3.42;;;0.70;99.90;;;;;;5071431;28;20048;-73
2022/01/08 05:59:14;;;;;;;9.43;3.95;;;0.60;99.90;;;;;;5071395;28;20444;-73
2022/01/08 06:01:40;;;;;;;10.35;4.07;;;0.50;99.90;;;;;;5072206;28;20079;-73
2022/01/08 06:04:06;;;;;;;11.43;4.57;;;0.50;99.90;;;;;;5072791;28;20039;-74
2022/01/08 06:06:31;;;;;;;11.65;4.22;;;0.50;99.90;;;;;;5074047;28;20613;-74
2022/01/08 06:08:57;;;;;;;13.15;4.38;;;0.50;99.90;;;;;;5075429;28;20040;-70
2022/01/08 06:11:22;;;;;;;8.75;4.03;;;0.40;99.90;;;;;;5075740;28;20044;-71
2022/01/08 06:13:48;;;;;;;9.50;4.75;;;0.40;99.90;;;;;;5075009;28;20063;-76
2022/01/08 06:16:14;;;;;;;11.63;4.57;;;0.30;99.90;;;;;;5075735;28;20040;-74
2022/01/08 06:18:40;;;;;;;14.07;5.18;;;0.30;99.90;;;;;;5075429;28;20040;-73
2022/01/08 06:21:07;;;;;;;8.70;4.90;;;0.30;99.90;;;;;;5074949;28;20044;-71
2022/01/08 06:23:32;;;;;;;12.70;5.25;;;0.20;99.90;;;;;;5075203;28;20111;-74
2022/01/08 06:25:58;;;;;;;11.57;5.50;;;0.20;99.90;;;;;;5075126;28;20155;-73
2022/01/08 06:28:24;;;;;;;14.52;4.93;;;0.20;99.90;;;;;;5074360;28;20126;-71
2022/01/08 06:30:49;;;;;;;12.05;5.68;;;0.20;99.90;;;;;;5043760;28;20059;-73
2022/01/08 06:33:16;;;;;;;16.45;5.85;;;0.10;99.90;;;;;;5074943;28;20039;-74
2022/01/08 06:35:42;;;;;;;7.45;4.30;;;0.10;99.90;;;;;;5075152;28;20047;-70
2022/01/08 06:38:07;;;;;;;10.13;4.70;;;0.10;99.90;;;;;;5075400;28;20412;-68
2022/01/08 06:40:33;;;;;;;18.05;5.13;;;0.00;99.90;;;;;;5093385;28;20521;-73
2022/01/08 06:42:59;;;;;;;11.63;5.18;;;0.00;99.90;;;;;;5074509;28;20044;-74
2022/01/08 06:45:25;;;;;;;15.48;5.43;;;0.00;99.90;;;;;;5074603;28;20048;-69
2022/01/08 06:47:50;;;;;;;9.60;5.03;;;0.00;99.90;;;;;;5058371;28;20083;-75
2022/01/08 06:50:16;;;;;;;14.18;5.93;;;0.00;99.90;;;;;;5074093;28;20263;-75
2022/01/08 06:52:41;;;;;;;12.10;5.07;;;0.00;99.90;;;;;;5074969;28;20050;-74
2022/01/08 06:55:08;;;;;;;10.43;5.05;;;0.00;99.90;;;;;;5075092;28;20133;-71
2022/01/08 06:57:34;;;;;;;13.63;5.25;;;-0.10;99.90;;;;;;5074128;28;20040;-73
2022/01/08 07:00:03;;;;;;;11.90;4.47;;;-0.10;99.90;;;;;;5093059;28;20043;-73
2022/01/08 07:02:29;;;;;;;18.73;5.60;;;0.00;99.90;;;;;;5091213;28;20131;-75
2022/01/08 07:04:54;;;;;;;9.93;4.05;;;0.00;99.90;;;;;;5074562;28;20580;-74
2022/01/08 07:07:20;;;;;;;13.80;4.78;;;0.10;99.90;;;;;;5045690;28;20123;-74
2022/01/08 07:09:46;;;;;;;16.73;4.22;;;0.10;99.90;;;;;;5074377;28;20043;-75
2022/01/08 07:12:11;;;;;;;15.70;4.50;;;0.00;99.90;;;;;;5074159;28;20063;-69
2022/01/08 07:14:37;;;;;;;10.55;3.65;;;0.00;99.90;;;;;;5075356;28;20139;-71
2022/01/08 07:17:03;;;;;;;13.35;4.18;;;0.10;99.90;;;;;;5073243;28;20044;-75
2022/01/08 07:19:28;;;;;;;12.60;3.28;;;0.00;99.90;;;;;;5074807;28;20044;-72
2022/01/08 07:21:54;;;;;;;10.85;3.70;;;0.00;99.90;;;;;;5074021;28;20096;-75
2022/01/08 07:24:20;;;;;;;10.45;3.55;;;0.00;99.90;;;;;;5057558;28;20086;-76
2022/01/08 07:26:45;;;;;;;13.88;3.85;;;0.00;99.90;;;;;;5073631;28;20108;-71
2022/01/08 07:29:11;;;;;;;14.10;3.85;;;0.00;99.90;;;;;;5057958;28;20039;-76
2022/01/08 07:31:36;;;;;;;18.00;4.45;;;0.00;99.90;;;;;;5073088;28;20063;-73
2022/01/08 07:34:02;;;;;;;9.43;4.15;;;0.00;99.90;;;;;;5057738;28;20132;-71
2022/01/08 07:36:28;;;;;;;10.93;4.07;;;0.10;99.90;;;;;;5045688;28;20171;-74
2022/01/08 07:38:53;;;;;;;11.70;3.80;;;0.10;99.90;;;;;;5074000;28;20124;-75
2022/01/08 07:41:19;;;;;;;13.23;4.28;;;0.10;99.90;;;;;;5073944;28;20051;-74
2022/01/08 07:43:45;;;;;;;10.95;3.55;;;0.20;99.90;;;;;;5038213;28;20063;-74
2022/01/08 07:46:11;;;;;;;11.88;4.05;;;0.20;99.90;;;;;;5062580;28;20044;-70
2022/01/08 07:48:36;;;;;;;8.00;3.80;;;0.20;99.90;;;;;;5057462;28;20093;-73
2022/01/08 07:51:02;;;;;;;14.45;4.28;;;0.20;99.90;;;;;;5073782;28;20111;-69
2022/01/08 07:53:28;;;;;;;13.15;4.50;;;0.20;99.90;;;;;;5040086;28;20044;-73
2022/01/08 07:55:53;;;;;;;10.13;4.75;;;0.30;99.90;;;;;;5059766;28;20036;-74
2022/01/08 07:58:20;;;;;;;15.85;4.85;;;0.30;99.90;;;;;;5073273;28;20039;-76
2022/01/08 08:00:50;;;;;;;10.48;4.68;;;0.30;99.90;;;;;;5072506;28;20052;-76
2022/01/08 08:03:16;;;;;;;10.55;5.20;;;0.30;99.90;;;;;;5073461;28;20041;-75
2022/01/08 08:05:42;;;;;;;9.25;4.40;;;0.30;99.90;;;;;;5072645;28;20058;-74
2022/01/08 08:08:08;;;;;;;11.35;5.28;;;0.30;99.90;;;;;;5073625;28;20047;-73
2022/01/08 08:10:33;;;;;;;11.85;4.57;;;0.30;99.90;;;;;;5073390;28;20036;-74
2022/01/08 08:13:00;;;;;;;13.73;5.90;;;0.30;99.90;;;;;;5072912;28;20044;-73
2022/01/08 08:15:26;;;;;;;9.82;5.57;;;0.40;99.90;;;;;;5073773;28;20044;-70
2022/01/08 08:17:53;;;;;;;14.57;7.00;;;0.30;99.90;;;;;;5056306;28;20534;-69
2022/01/08 08:20:18;;;;;;;8.38;4.88;;;0.40;99.90;;;;;;5055897;28;20040;-71
2022/01/08 08:22:45;;;;;;;10.18;6.05;;;0.40;99.90;;;;;;5073260;28;20044;-72
2022/01/08 08:25:11;;;;;;;12.63;6.07;;;0.50;99.90;;;;;;5073394;28;20040;-71
2022/01/08 08:27:39;;;;;;;14.23;6.70;;;0.50;99.90;;;;;;5060989;28;20500;-70
2022/01/08 08:30:06;;;;;;;15.93;7.03;;;0.60;99.90;;;;;;5056417;28;20418;-71
2022/01/08 08:32:32;;;;;;;16.75;7.35;;;0.60;99.90;;;;;;5040961;28;20071;-69
2022/01/08 08:34:58;;;;;;;15.50;7.07;;;0.70;99.90;;;;;;5036270;28;20053;-72
2022/01/08 08:37:24;;;;;;;14.80;7.40;;;0.80;99.90;;;;;;5066386;28;20051;-73
2022/01/08 08:39:49;;;;;;;18.35;6.68;;;0.80;99.90;;;;;;5073042;28;20044;-72
2022/01/08 08:42:15;;;;;;;13.93;6.80;;;1.00;99.90;;;;;;5046192;28;20040;-73
2022/01/08 08:44:41;;;;;;;12.85;7.28;;;1.00;99.90;;;;;;5072931;28;20109;-74
2022/01/08 08:47:07;;;;;;;11.52;6.82;;;1.10;99.90;;;;;;5047592;28;20048;-71
2022/01/08 08:49:34;;;;;;;16.73;7.50;;;1.10;99.90;;;;;;5069407;28;20043;-74
2022/01/08 08:52:00;;;;;;;17.70;8.02;;;1.20;99.90;;;;;;5071151;28;20048;-72
2022/01/08 08:54:26;;;;;;;13.82;7.38;;;1.30;99.90;;;;;;5072778;28;20080;-74
2022/01/08 08:56:52;;;;;;;13.13;7.55;;;1.30;99.90;;;;;;5048970;28;20098;-74
2022/01/08 08:59:18;;;;;;;11.00;6.97;;;1.30;99.90;;;;;;5067977;28;20431;-76
2022/01/08 09:01:44;;;;;;;13.40;7.22;;;1.40;99.90;;;;;;5072649;28;20070;-74
2022/01/08 09:04:11;;;;;;;12.20;7.55;;;1.40;99.90;;;;;;5072545;28;20399;-73
2022/01/08 09:06:36;;;;;;;10.68;7.10;;;1.50;99.90;;;;;;5072892;28;20040;-75
2022/01/08 09:09:02;;;;;;;15.50;6.70;;;1.50;99.90;;;;;;5090157;28;20044;-74
2022/01/08 09:11:28;;;;;;;13.15;6.68;;;1.50;99.90;;;;;;5072919;28;20036;-72
2022/01/08 09:13:54;;;;;;;10.60;6.88;;;1.50;99.90;;;;;;5055558;28;20535;-74
2022/01/08 09:16:20;;;;;;;13.23;6.93;;;1.50;99.90;;;;;;5055554;28;20079;-69
2022/01/08 09:18:46;;;;;;;14.80;6.40;;;1.60;99.90;;;;;;5072246;28;20036;-75
2022/01/08 09:21:13;;;;;;;11.65;6.65;;;1.60;99.90;;;;;;5071293;28;20076;-74
2022/01/08 09:23:39;;;;;;;11.48;6.13;;;1.60;99.90;;;;;;5070981;28;20036;-74
2022/01/08 09:26:05;;;;;;;10.40;5.85;;;1.70;99.90;;;;;;5072531;28;20110;-73
2022/01/08 09:28:32;;;;;;;12.95;5.45;;;1.70;99.90;;;;;;5055241;28;20040;-74
2022/01/08 09:30:59;;;;;;;15.07;6.40;;;1.80;99.90;;;;;;5052098;28;20085;-72
2022/01/08 09:33:25;;;;;;;17.17;5.97;;;1.80;99.90;;;;;;5054864;28;20052;-75
2022/01/08 09:35:52;;;;;;;14.77;6.05;;;1.80;99.90;;;;;;5055766;28;20036;-74
2022/01/08 09:38:18;;;;;;;9.98;4.63;;;1.90;99.90;;;;;;5071260;28;20044;-73
2022/01/08 09:40:44;;;;;;;15.52;5.80;;;1.90;99.90;;;;;;5049930;28;20037;-73
2022/01/08 09:43:10;;;;;;;10.52;5.70;;;1.90;99.90;;;;;;5062700;28;20035;-73
2022/01/08 09:45:36;;;;;;;13.23;6.22;;;1.90;99.90;;;;;;5059256;28;20059;-73
2022/01/08 09:48:02;;;;;;;12.05;5.80;;;2.00;99.90;;;;;;5059393;28;20059;-73
2022/01/08 09:50:28;;;;;;;10.05;5.05;;;2.00;99.90;;;;;;5076229;28;20040;-72
2022/01/08 09:52:57;;;;;;;15.57;5.07;;;2.10;99.90;;;;;;5075418;28;20051;-73
2022/01/08 09:55:25;;;;;;;12.32;5.20;;;2.10;99.90;;;;;;5059546;28;20044;-73
2022/01/08 09:57:51;;;;;;;12.02;4.80;;;2.20;99.90;;;;;;5059088;28;20427;-73
2022/01/08 10:00:18;;;;;;;15.57;5.57;;;2.30;99.90;;;;;;5080265;28;20047;-71
2022/01/08 10:02:47;;;;;;;9.88;5.10;;;2.40;99.90;;;;;;5076103;28;20031;-73
2022/01/08 10:05:17;;;;;;;9.80;5.45;;;2.50;99.90;;;;;;5055500;28;20041;-73
2022/01/08 10:07:59;;;;;;;10.32;5.07;;;2.60;99.90;;;;;;5059778;28;20412;-73
2022/01/08 10:10:27;;;;;;;7.38;5.25;;;2.70;99.90;;;;;;5059300;28;20052;-73
2022/01/08 10:12:59;;;;;;;14.65;5.55;;;2.70;99.90;;;;;;5075138;28;20465;-73
2022/01/08 10:18:24;;;;;;;13.27;6.47;;;2.90;99.90;;;;;;5073066;28;20056;-72
2022/01/08 10:20:50;;;;;;;12.02;5.90;;;3.10;99.90;;;;;;5059125;28;20044;-73
2022/01/08 10:23:22;;;;;;;8.90;5.63;;;3.20;99.90;;;;;;5075537;28;20089;-73
2022/01/08 10:26:03;;;;;;;8.55;5.22;;;3.20;99.90;;;;;;5074780;28;20565;-72
2022/01/08 10:28:54;;;;;;;13.93;5.55;;;3.30;99.90;;;;;;5075831;28;20047;-73
2022/01/08 10:31:22;;;;;;;9.68;5.25;;;3.40;99.90;;;;;;5075213;28;20054;-72
2022/01/08 10:34:01;;;;;;;13.13;6.43;;;3.40;99.90;;;;;;5058372;28;20070;-72
2022/01/08 10:36:38;;;;;;;11.30;5.93;;;3.40;99.90;;;;;;5075120;28;20043;-72
2022/01/08 10:39:09;;;;;;;11.15;6.50;;;3.40;99.90;;;;;;5075003;28;20044;-71
2022/01/08 10:41:40;;;;;;;13.18;6.75;;;3.50;99.90;;;;;;5052682;28;20040;-71
2022/01/08 10:44:15;;;;;;;12.80;6.72;;;3.50;99.90;;;;;;5074693;28;20043;-72
2022/01/08 10:47:02;;;;;;;12.55;6.88;;;3.60;99.90;;;;;;5074244;28;20619;-72
2022/01/08 10:50:00;;;;;;;13.48;7.25;;;3.60;99.90;;;;;;5075375;28;20044;-71
2022/01/08 10:52:26;;;;;;;11.57;6.40;;;3.60;99.90;;;;;;5054590;28;20036;-71
2022/01/08 10:55:01;;;;;;;13.48;7.07;;;3.60;99.90;;;;;;5069801;28;20166;-72
2022/01/08 10:57:35;;;;;;;11.63;6.22;;;3.80;99.90;;;;;;5075148;28;20056;-72
2022/01/08 11:00:03;;;;;;;9.20;5.70;;;3.70;99.90;;;;;;5056455;28;20123;-74
2022/01/08 11:02:31;;;;;;;11.23;6.57;;;3.80;99.90;;;;;;5074410;28;20056;-74
2022/01/08 11:04:56;;;;;;;9.35;6.53;;;3.90;99.90;;;;;;5074962;28;20490;-78
2022/01/08 11:07:41;;;;;;;10.95;5.78;;;3.90;99.90;;;;;;5057211;28;20093;-73
2022/01/08 11:10:17;;;;;;;9.60;6.28;;;4.00;99.90;;;;;;5058215;28;20046;-71
2022/01/08 11:12:45;;;;;;;12.05;6.20;;;4.10;99.90;;;;;;5075038;28;20040;-74
2022/01/08 11:17:51;;;;;;;10.18;6.45;;;4.00;99.90;;;;;;5073704;28;20067;-74
2022/01/08 11:20:23;;;;;;;15.25;6.97;;;4.00;99.90;;;;;;5073647;28;20126;-69
2022/01/08 11:23:00;;;;;;;10.23;6.53;;;4.00;99.90;;;;;;5072780;28;20060;-72
2022/01/08 11:25:34;;;;;;;14.55;7.75;;;4.10;99.90;;;;;;5074213;28;20089;-70
2022/01/08 11:28:08;;;;;;;13.98;7.68;;;4.10;99.90;;;;;;5073493;28;20559;-72
2022/01/08 11:30:57;;;;;;;13.80;6.95;;;4.10;99.90;;;;;;5074107;28;20045;-73
2022/01/08 11:33:30;;;;;;;12.70;7.80;;;4.10;99.90;;;;;;5074774;28;20863;-73
2022/01/08 11:35:57;;;;;;;13.30;7.93;;;4.20;99.90;;;;;;5072115;28;20048;-73
2022/01/08 11:38:26;;;;;;;15.90;8.45;;;4.20;99.90;;;;;;5073985;28;20044;-72
2022/01/08 11:40:53;;;;;;;13.02;8.57;;;4.30;99.90;;;;;;5056641;28;20044;-72
2022/01/08 11:43:22;;;;;;;11.75;8.95;;;4.40;99.90;;;;;;5073251;28;20493;-73
2022/01/08 11:45:52;;;;;;;12.43;9.80;;;4.40;99.90;;;;;;5072436;28;20151;-72
2022/01/08 11:48:22;;;;;;;15.02;10.07;;;4.40;99.90;;;;;;5056739;28;20081;-72
2022/01/08 11:50:53;;;;;;;15.98;10.85;;;4.30;99.90;;;;;;5072640;28;20047;-72
2022/01/08 11:53:25;;;;;;;17.38;11.27;;;4.40;99.90;;;;;;5087596;28;20516;-72
2022/01/08 11:55:53;;;;;;;13.82;11.18;;;4.40;99.90;;;;;;5065009;28;20090;-73
2022/01/08 11:58:23;;;;;;;16.80;12.48;;;4.50;99.90;;;;;;5073082;28;20447;-71
2022/01/08 12:00:55;;;;;;;16.10;11.48;;;4.40;99.90;;;;;;5073504;28;20048;-72
2022/01/08 12:03:50;;;;;;;14.88;12.80;;;4.40;99.90;;;;;;5071879;28;20602;-71
2022/01/08 12:06:18;;;;;;;17.05;13.68;;;4.50;99.90;;;;;;5073137;28;20038;-73
2022/01/08 12:09:07;;;;;;;20.13;13.57;;;4.40;99.90;;;;;;5071868;28;20044;-73
2022/01/08 12:11:36;;;;;;;16.92;13.60;;;4.40;99.90;;;;;;5068967;28;20549;-72
2022/01/08 12:14:10;;;;;;;18.65;14.35;;;4.30;99.90;;;;;;5073437;28;20048;-73
2022/01/08 12:16:36;;;;;;;18.75;14.55;;;4.30;99.90;;;;;;5072111;28;20047;-73
2022/01/08 12:19:05;;;;;;;17.05;14.18;;;4.30;99.90;;;;;;5056449;28;20075;-73
2022/01/08 12:21:37;;;;;;;16.08;14.27;;;4.30;99.90;;;;;;5073359;28;20042;-74
2022/01/08 12:24:26;;;;;;;18.88;14.98;;;4.30;99.90;;;;;;5071690;28;20043;-72
2022/01/08 12:26:54;;;;;;;19.63;14.52;;;4.30;99.90;;;;;;5057429;28;20048;-71
2022/01/08 12:29:39;;;;;;;17.92;14.18;;;4.40;99.90;;;;;;5056252;28;20089;-72
2022/01/08 12:32:40;;;;;;;20.85;15.05;;;4.40;99.90;;;;;;5056203;28;20076;-73
2022/01/08 12:35:19;;;;;;;20.70;14.32;;;4.40;99.90;;;;;;5056716;28;20493;-73
2022/01/08 12:37:47;;;;;;;18.70;12.52;;;4.40;99.90;;;;;;5056295;28;20044;-72
2022/01/08 12:40:41;;;;;;;15.32;13.20;;;4.40;99.90;;;;;;5072336;28;20378;-73
2022/01/08 12:43:35;;;;;;;17.58;12.43;;;4.40;99.90;;;;;;5071379;28;20083;-72
2022/01/08 12:46:22;;;;;;;17.70;13.27;;;4.40;99.90;;;;;;5072149;28;20054;-71
2022/01/08 12:49:03;;;;;;;16.50;13.43;;;4.40;99.90;;;;;;5065475;28;20465;-71
2022/01/08 12:51:50;;;;;;;16.13;12.27;;;4.40;99.90;;;;;;5070017;28;20052;-74
2022/01/08 12:54:18;;;;;;;16.00;11.93;;;4.40;99.90;;;;;;5071665;28;20542;-77
2022/01/08 12:56:55;;;;;;;15.68;12.50;;;4.40;99.90;;;;;;5071565;28;20044;-76
2022/01/08 12:59:29;;;;;;;14.07;11.88;;;4.40;99.90;;;;;;5056226;28;20036;-78
2022/01/08 13:01:55;;;;;;;13.93;11.85;;;4.40;99.90;;;;;;5072479;28;20135;-81
2022/01/08 13:04:22;;;;;;;12.45;10.40;;;4.50;99.90;;;;;;5063923;28;20389;-78
2022/01/08 13:06:51;;;;;;;17.52;10.50;;;4.50;99.90;;;;;;5072491;28;20077;-76
2022/01/08 13:09:17;;;;;;;12.85;10.55;;;4.50;99.90;;;;;;5072385;28;20132;-78
2022/01/08 13:11:45;;;;;;;13.70;10.00;;;4.40;99.90;;;;;;5055547;28;20461;-73
2022/01/08 13:14:14;;;;;;;11.55;9.35;;;4.40;99.90;;;;;;5070650;28;20051;-72
2022/01/08 13:16:46;;;;;;;11.45;8.90;;;4.40;99.90;;;;;;5072350;28;20115;-72
2022/01/08 13:19:20;;;;;;;12.60;8.00;;;4.40;99.90;;;;;;5082188;28;20041;-73
2022/01/08 13:21:49;;;;;;;11.98;8.70;;;4.40;99.90;;;;;;5043350;28;20047;-73
2022/01/08 13:24:29;;;;;;;12.68;8.65;;;4.40;99.90;;;;;;5075965;28;20489;-71
2022/01/08 13:26:59;;;;;;;12.90;8.63;;;4.40;99.90;;;;;;5058655;28;20044;-71